createdAt,value
2018-04-26T00:00:56.712Z,10.94
2018-04-26T00:01:56.708Z,10.93
2018-04-26T00:02:56.701Z,10.91
2018-04-26T00:03:56.697Z,10.84
2018-04-26T00:04:56.694Z,10.86
2018-04-26T00:05:56.690Z,10.88
2018-04-26T00:06:56.681Z,10.88
2018-04-26T00:07:56.675Z,10.87
2018-04-26T00:08:56.676Z,10.69
2018-04-26T00:09:56.671Z,10.75
2018-04-26T00:10:56.658Z,10.66
2018-04-26T00:11:56.653Z,10.68
2018-04-26T00:12:56.647Z,10.60
2018-04-26T00:13:56.641Z,10.68
2018-04-26T00:14:56.636Z,10.65
2018-04-26T00:15:56.630Z,10.62
2018-04-26T00:16:56.630Z,10.62
2018-04-26T00:17:56.624Z,10.66
2018-04-26T00:18:56.618Z,10.58
2018-04-26T00:19:56.619Z,10.63
2018-04-26T00:20:56.602Z,10.68
2018-04-26T00:21:56.596Z,10.70
2018-04-26T00:22:56.592Z,10.66
2018-04-26T00:23:56.586Z,10.66
2018-04-26T00:24:56.582Z,10.69
2018-04-26T00:25:56.576Z,10.68
2018-04-26T00:26:56.569Z,10.68
2018-04-26T00:27:56.566Z,10.84
2018-04-26T00:28:56.558Z,10.83
2018-04-26T00:29:56.556Z,10.88
2018-04-26T00:30:56.551Z,10.86
2018-04-26T00:31:56.549Z,10.88
2018-04-26T00:32:56.535Z,10.90
2018-04-26T00:33:56.531Z,10.93
2018-04-26T00:34:56.526Z,10.95
2018-04-26T00:35:56.564Z,10.93
2018-04-26T00:36:56.519Z,10.90
2018-04-26T00:37:56.513Z,10.88
2018-04-26T00:38:56.504Z,10.93
2018-04-26T00:39:56.499Z,10.86
2018-04-26T00:40:56.491Z,10.87
2018-04-26T00:41:56.491Z,10.81
2018-04-26T00:42:56.481Z,10.83
2018-04-26T00:43:56.476Z,10.87
2018-04-26T00:44:56.470Z,10.83
2018-04-26T00:45:56.464Z,10.91
2018-04-26T00:46:56.461Z,10.98
2018-04-26T00:47:56.468Z,10.93
2018-04-26T00:48:56.452Z,11.02
2018-04-26T00:49:56.447Z,11.01
2018-04-26T00:50:56.443Z,11.05
2018-04-26T00:51:56.437Z,11.06
2018-04-26T00:52:56.428Z,11.12
2018-04-26T00:53:56.423Z,11.06
2018-04-26T00:54:56.417Z,11.16
2018-04-26T00:55:56.412Z,11.08
2018-04-26T00:56:56.406Z,11.06
2018-04-26T00:57:56.402Z,11.11
2018-04-26T00:58:56.400Z,11.09
2018-04-26T00:59:56.393Z,11.08
2018-04-26T01:00:56.385Z,11.09
2018-04-26T01:01:56.381Z,11.09
2018-04-26T01:02:56.379Z,11.16
2018-04-26T01:03:56.378Z,11.17
2018-04-26T01:04:56.370Z,11.13
2018-04-26T01:05:56.369Z,11.08
2018-04-26T01:06:56.356Z,11.11
2018-04-26T01:07:56.357Z,11.11
2018-04-26T01:08:56.344Z,11.09
2018-04-26T01:09:56.351Z,11.11
2018-04-26T01:10:56.339Z,11.11
2018-04-26T01:11:56.333Z,11.12
2018-04-26T01:12:56.323Z,11.08
2018-04-26T01:13:56.318Z,11.12
2018-04-26T01:14:56.318Z,11.05
2018-04-26T01:15:56.313Z,11.13
2018-04-26T01:16:56.307Z,11.12
2018-04-26T01:17:56.298Z,11.05
2018-04-26T01:18:56.293Z,11.13
2018-04-26T01:19:56.307Z,11.20
2018-04-26T01:20:56.283Z,11.19
2018-04-26T01:21:56.277Z,11.16
2018-04-26T01:22:56.273Z,11.12
2018-04-26T01:23:56.270Z,11.17
2018-04-26T01:24:56.262Z,11.12
2018-04-26T01:25:56.259Z,11.20
2018-04-26T01:26:56.253Z,11.11
2018-04-26T01:27:56.248Z,11.12
2018-04-26T01:28:56.246Z,11.16
2018-04-26T01:29:56.241Z,11.11
2018-04-26T01:30:56.232Z,11.19
2018-04-26T01:31:56.227Z,11.11
2018-04-26T01:32:56.225Z,11.16
2018-04-26T01:33:56.220Z,11.13
2018-04-26T01:34:56.212Z,11.13
2018-04-26T01:35:56.208Z,11.13
2018-04-26T01:36:56.203Z,11.17
2018-04-26T01:37:56.197Z,11.20
2018-04-26T01:38:56.191Z,11.13
2018-04-26T01:39:56.187Z,11.17
2018-04-26T01:40:56.180Z,11.13
2018-04-26T01:41:56.177Z,11.13
2018-04-26T01:42:56.176Z,11.16
2018-04-26T01:43:56.170Z,11.16
2018-04-26T01:44:56.162Z,11.16
2018-04-26T01:45:56.156Z,11.13
2018-04-26T01:46:56.161Z,11.20
2018-04-26T01:47:56.151Z,11.16
2018-04-26T01:48:56.140Z,11.13
2018-04-26T01:49:56.136Z,11.11
2018-04-26T01:50:56.131Z,11.27
2018-04-26T01:51:56.127Z,11.13
2018-04-26T01:52:56.121Z,11.13
2018-04-26T01:53:56.121Z,11.13
2018-04-26T01:54:56.112Z,11.12
2018-04-26T01:55:56.106Z,11.16
2018-04-26T01:56:56.101Z,11.16
2018-04-26T01:57:56.095Z,11.20
2018-04-26T01:58:56.091Z,11.17
2018-04-26T01:59:56.087Z,11.17
2018-04-26T02:00:56.085Z,11.19
2018-04-26T02:01:56.080Z,11.16
2018-04-26T02:02:56.070Z,11.26
2018-04-26T02:03:56.066Z,11.30
2018-04-26T02:04:56.064Z,11.26
2018-04-26T02:05:56.059Z,11.23
2018-04-26T02:06:56.050Z,11.27
2018-04-26T02:07:56.046Z,11.21
2018-04-26T02:08:56.040Z,11.28
2018-04-26T02:09:56.036Z,11.19
2018-04-26T02:10:56.033Z,11.24
2018-04-26T02:11:56.032Z,11.23
2018-04-26T02:12:56.023Z,11.21
2018-04-26T02:13:56.021Z,11.26
2018-04-26T02:14:56.012Z,11.20
2018-04-26T02:15:56.010Z,11.27
2018-04-26T02:16:55.998Z,11.23
2018-04-26T02:17:55.994Z,11.33
2018-04-26T02:18:55.989Z,11.30
2018-04-26T02:19:55.984Z,11.39
2018-04-26T02:20:55.979Z,11.33
2018-04-26T02:21:55.977Z,11.31
2018-04-26T02:22:55.969Z,11.28
2018-04-26T02:23:55.964Z,11.33
2018-04-26T02:24:55.963Z,11.28
2018-04-26T02:25:55.957Z,11.31
2018-04-26T02:26:55.953Z,11.30
2018-04-26T02:27:55.947Z,11.27
2018-04-26T02:28:55.937Z,11.27
2018-04-26T02:29:55.933Z,11.27
2018-04-26T02:30:55.941Z,11.24
2018-04-26T02:31:55.927Z,11.26
2018-04-26T02:32:55.919Z,11.24
2018-04-26T02:33:55.913Z,11.31
2018-04-26T02:34:55.908Z,11.21
2018-04-26T02:35:55.903Z,11.28
2018-04-26T02:36:55.898Z,11.12
2018-04-26T02:37:55.894Z,11.16
2018-04-26T02:38:55.891Z,11.17
2018-04-26T02:39:55.888Z,11.21
2018-04-26T02:40:55.878Z,11.17
2018-04-26T02:41:55.871Z,11.06
2018-04-26T02:42:55.865Z,11.19
2018-04-26T02:43:55.860Z,11.17
2018-04-26T02:44:55.860Z,11.13
2018-04-26T02:45:55.855Z,11.16
2018-04-26T02:46:55.846Z,11.24
2018-04-26T02:47:55.841Z,11.19
2018-04-26T02:48:55.836Z,11.17
2018-04-26T02:49:55.830Z,11.12
2018-04-26T02:50:55.825Z,11.09
2018-04-26T02:51:55.820Z,11.09
2018-04-26T02:52:55.813Z,11.13
2018-04-26T02:53:55.808Z,11.16
2018-04-26T02:54:55.805Z,11.09
2018-04-26T02:55:55.798Z,11.19
2018-04-26T02:56:55.796Z,11.11
2018-04-26T02:57:55.792Z,11.20
2018-04-26T02:58:55.786Z,11.20
2018-04-26T02:59:55.782Z,11.21
2018-04-26T03:00:55.773Z,11.19
2018-04-26T03:01:55.767Z,11.21
2018-04-26T03:02:55.762Z,11.19
2018-04-26T03:03:55.762Z,11.24
2018-04-26T03:04:55.751Z,11.19
2018-04-26T03:05:55.748Z,11.23
2018-04-26T03:06:55.743Z,11.27
2018-04-26T03:07:55.737Z,11.24
2018-04-26T03:08:55.730Z,11.30
2018-04-26T03:09:55.725Z,11.13
2018-04-26T03:10:55.725Z,11.16
2018-04-26T03:11:55.720Z,11.17
2018-04-26T03:12:55.710Z,11.23
2018-04-26T03:13:55.705Z,11.21
2018-04-26T03:14:55.702Z,11.27
2018-04-26T03:15:55.695Z,11.16
2018-04-26T03:16:55.689Z,11.24
2018-04-26T03:17:55.684Z,11.21
2018-04-26T03:18:55.685Z,11.24
2018-04-26T03:19:55.682Z,11.24
2018-04-26T03:20:55.669Z,11.23
2018-04-26T03:21:55.664Z,11.33
2018-04-26T03:22:55.664Z,11.26
2018-04-26T03:23:55.658Z,11.30
2018-04-26T03:24:55.650Z,11.35
2018-04-26T03:25:55.643Z,11.31
2018-04-26T03:26:55.638Z,11.27
2018-04-26T03:27:55.700Z,11.35
2018-04-26T03:28:55.627Z,11.35
2018-04-26T03:29:55.623Z,11.30
2018-04-26T03:30:55.689Z,11.33
2018-04-26T03:31:55.615Z,11.26
2018-04-26T03:32:55.609Z,11.30
2018-04-26T03:33:55.603Z,11.23
2018-04-26T03:34:55.597Z,11.23
2018-04-26T03:35:55.594Z,11.30
2018-04-26T03:36:55.590Z,11.30
2018-04-26T03:37:55.586Z,11.27
2018-04-26T03:38:55.576Z,11.30
2018-04-26T03:39:55.572Z,11.31
2018-04-26T03:40:55.575Z,11.26
2018-04-26T03:41:55.566Z,11.28
2018-04-26T03:42:55.630Z,11.30
2018-04-26T03:43:55.553Z,11.38
2018-04-26T03:44:55.546Z,11.26
2018-04-26T03:45:55.543Z,11.23
2018-04-26T03:46:55.537Z,11.28
2018-04-26T03:47:55.532Z,11.20
2018-04-26T03:48:55.527Z,11.21
2018-04-26T03:49:55.521Z,11.24
2018-04-26T03:50:55.521Z,11.21
2018-04-26T03:51:55.516Z,11.16
2018-04-26T03:52:55.506Z,11.26
2018-04-26T03:53:55.502Z,11.17
2018-04-26T03:54:55.500Z,11.13
2018-04-26T03:55:55.495Z,11.11
2018-04-26T03:56:55.487Z,11.13
2018-04-26T03:57:55.481Z,11.11
2018-04-26T03:58:55.475Z,11.12
2018-04-26T03:59:55.471Z,11.19
2018-04-26T04:00:55.466Z,11.17
2018-04-26T04:01:55.461Z,11.05
2018-04-26T04:02:55.456Z,11.20
2018-04-26T04:03:55.450Z,11.19
2018-04-26T04:04:55.446Z,11.19
2018-04-26T04:05:55.439Z,11.09
2018-04-26T04:06:55.434Z,11.27
2018-04-26T04:07:55.429Z,11.12
2018-04-26T04:08:55.427Z,11.13
2018-04-26T04:09:55.423Z,11.16
2018-04-26T04:10:55.415Z,11.19
2018-04-26T04:11:55.409Z,11.23
2018-04-26T04:12:55.407Z,11.19
2018-04-26T04:13:55.530Z,11.16
2018-04-26T04:14:55.394Z,11.11
2018-04-26T04:15:55.388Z,11.13
2018-04-26T04:16:55.382Z,11.13
2018-04-26T04:17:55.379Z,11.20
2018-04-26T04:18:55.388Z,11.16
2018-04-26T04:19:55.369Z,11.13
2018-04-26T04:20:55.360Z,11.13
2018-04-26T04:21:55.355Z,11.20
2018-04-26T04:22:55.356Z,11.13
2018-04-26T04:23:55.351Z,11.13
2018-04-26T04:24:55.339Z,11.19
2018-04-26T04:25:55.334Z,11.13
2018-04-26T04:26:55.333Z,11.21
2018-04-26T04:27:55.399Z,11.19
2018-04-26T04:28:55.318Z,11.20
2018-04-26T04:29:55.314Z,11.20
2018-04-26T04:30:55.313Z,11.26
2018-04-26T04:31:55.304Z,11.30
2018-04-26T04:32:55.299Z,11.27
2018-04-26T04:33:55.294Z,11.31
2018-04-26T04:34:55.288Z,11.33
2018-04-26T04:35:55.288Z,11.26
2018-04-26T04:36:55.278Z,11.30
2018-04-26T04:37:55.272Z,11.30
2018-04-26T04:38:55.268Z,11.33
2018-04-26T04:39:55.263Z,11.26
2018-04-26T04:40:55.260Z,11.31
2018-04-26T04:41:55.256Z,11.28
2018-04-26T04:42:55.247Z,11.31
2018-04-26T04:43:55.241Z,11.33
2018-04-26T04:44:55.241Z,11.33
2018-04-26T04:45:55.235Z,11.31
2018-04-26T04:46:55.226Z,11.26
2018-04-26T04:47:55.221Z,11.28
2018-04-26T04:48:55.279Z,11.21
2018-04-26T04:49:55.213Z,11.35
2018-04-26T04:50:55.279Z,11.27
2018-04-26T04:51:55.201Z,11.31
2018-04-26T04:52:55.196Z,11.23
2018-04-26T04:53:55.190Z,11.23
2018-04-26T04:54:55.192Z,11.24
2018-04-26T04:55:55.185Z,11.27
2018-04-26T04:56:55.175Z,11.27
2018-04-26T04:57:55.169Z,11.30
2018-04-26T04:58:55.169Z,11.33
2018-04-26T04:59:55.164Z,11.33
2018-04-26T05:00:55.153Z,11.27
2018-04-26T05:01:55.198Z,11.33
2018-04-26T05:02:55.144Z,11.38
2018-04-26T05:03:55.142Z,11.36
2018-04-26T05:04:55.134Z,11.31
2018-04-26T05:05:55.128Z,11.28
2018-04-26T05:06:55.126Z,11.30
2018-04-26T05:07:55.118Z,11.27
2018-04-26T05:08:55.113Z,11.27
2018-04-26T05:09:55.109Z,11.31
2018-04-26T05:10:55.103Z,11.24
2018-04-26T05:11:55.098Z,11.33
2018-04-26T05:12:55.096Z,11.31
2018-04-26T05:13:55.156Z,11.30
2018-04-26T05:14:55.083Z,11.30
2018-04-26T05:15:55.078Z,11.27
2018-04-26T05:16:55.076Z,11.30
2018-04-26T05:17:55.071Z,11.24
2018-04-26T05:18:55.064Z,11.13
2018-04-26T05:19:55.058Z,11.16
2018-04-26T05:20:55.053Z,11.06
2018-04-26T05:21:55.047Z,11.02
2018-04-26T05:22:55.045Z,11.01
2018-04-26T05:23:55.037Z,11.01
2018-04-26T05:24:55.036Z,10.93
2018-04-26T05:25:55.031Z,10.94
2018-04-26T05:26:55.022Z,10.91
2018-04-26T05:27:55.018Z,10.84
2018-04-26T05:28:55.015Z,10.86
2018-04-26T05:29:55.026Z,10.87
2018-04-26T05:30:55.002Z,10.84
2018-04-26T05:31:54.996Z,10.84
2018-04-26T05:32:54.991Z,10.81
2018-04-26T05:33:54.985Z,10.86
2018-04-26T05:34:54.980Z,10.86
2018-04-26T05:35:54.975Z,10.83
2018-04-26T05:36:54.973Z,10.88
2018-04-26T05:37:54.967Z,10.90
2018-04-26T05:38:54.969Z,10.86
2018-04-26T05:39:54.958Z,10.87
2018-04-26T05:40:54.953Z,10.86
2018-04-26T05:41:54.943Z,10.80
2018-04-26T05:42:54.942Z,10.78
2018-04-26T05:43:54.934Z,10.69
2018-04-26T05:44:54.928Z,10.90
2018-04-26T05:45:54.926Z,10.90
2018-04-26T05:46:54.918Z,10.84
2018-04-26T05:47:54.913Z,10.86
2018-04-26T05:48:54.907Z,11.03
2018-04-26T05:49:54.901Z,10.93
2018-04-26T05:50:54.901Z,10.86
2018-04-26T05:51:54.896Z,10.73
2018-04-26T05:52:54.887Z,10.70
2018-04-26T05:53:54.882Z,10.46
2018-04-26T05:54:54.882Z,10.42
2018-04-26T05:55:54.961Z,10.38
2018-04-26T05:56:54.870Z,10.31
2018-04-26T05:57:54.865Z,10.16
2018-04-26T05:58:54.856Z,10.11
2018-04-26T05:59:54.851Z,10.04
2018-04-26T06:00:54.848Z,9.95
2018-04-26T06:01:54.841Z,9.81
2018-04-26T06:02:54.839Z,9.78
2018-04-26T06:03:54.829Z,9.62
2018-04-26T06:04:54.826Z,9.58
2018-04-26T06:05:54.824Z,9.49
2018-04-26T06:06:54.821Z,9.41
2018-04-26T06:07:54.808Z,9.41
2018-04-26T06:08:54.804Z,9.35
2018-04-26T06:09:54.799Z,9.34
2018-04-26T06:10:54.793Z,9.26
2018-04-26T06:11:54.788Z,9.16
2018-04-26T06:12:54.783Z,9.15
2018-04-26T06:13:54.771Z,9.12
2018-04-26T06:14:54.767Z,9.15
2018-04-26T06:15:54.761Z,9.08
2018-04-26T06:16:54.847Z,9.15
2018-04-26T06:17:54.747Z,9.08
2018-04-26T06:18:54.743Z,9.04
2018-04-26T06:19:54.737Z,9.04
2018-04-26T06:20:54.730Z,9.15
2018-04-26T06:21:54.725Z,9.15
2018-04-26T06:22:54.728Z,9.01
2018-04-26T06:23:54.716Z,9.08
2018-04-26T06:24:54.705Z,9.10
2018-04-26T06:25:54.700Z,9.12
2018-04-26T06:26:54.695Z,9.08
2018-04-26T06:27:54.689Z,9.19
2018-04-26T06:28:54.681Z,9.15
2018-04-26T06:29:54.676Z,9.34
2018-04-26T06:30:54.675Z,9.48
2018-04-26T06:31:54.668Z,9.49
2018-04-26T06:32:54.657Z,9.63
2018-04-26T06:33:54.651Z,10.38
2018-04-26T06:34:54.650Z,10.36
2018-04-26T06:35:54.644Z,10.60
2018-04-26T06:36:54.664Z,10.65
2018-04-26T06:37:54.628Z,10.55
2018-04-26T06:38:54.623Z,10.42
2018-04-26T06:39:54.630Z,10.58
2018-04-26T06:40:54.613Z,10.43
2018-04-26T06:41:54.611Z,10.43
2018-04-26T06:42:54.602Z,10.43
2018-04-26T06:43:54.600Z,10.52
2018-04-26T06:44:54.590Z,10.38
2018-04-26T06:45:54.585Z,10.35
2018-04-26T06:46:54.580Z,10.26
2018-04-26T06:47:54.643Z,10.28
2018-04-26T06:48:54.573Z,10.20
2018-04-26T06:49:54.644Z,10.17
2018-04-26T06:50:54.561Z,10.14
2018-04-26T06:51:54.556Z,10.14
2018-04-26T06:52:54.554Z,10.24
2018-04-26T06:53:54.551Z,10.28
2018-04-26T06:54:54.541Z,10.43
2018-04-26T06:55:54.536Z,10.51
2018-04-26T06:56:54.533Z,10.57
2018-04-26T06:57:54.525Z,10.75
2018-04-26T06:58:54.520Z,10.83
2018-04-26T06:59:54.516Z,10.90
2018-04-26T07:00:54.511Z,10.87
2018-04-26T07:01:54.507Z,10.80
2018-04-26T07:02:54.506Z,10.72
2018-04-26T07:03:54.505Z,10.70
2018-04-26T07:04:54.492Z,10.73
2018-04-26T07:05:54.563Z,10.90
2018-04-26T07:06:54.487Z,10.80
2018-04-26T07:07:54.483Z,10.88
2018-04-26T07:08:54.474Z,10.68
2018-04-26T07:09:54.470Z,10.66
2018-04-26T07:10:54.465Z,10.65
2018-04-26T07:11:54.462Z,10.66
2018-04-26T07:12:54.455Z,10.62
2018-04-26T07:13:54.451Z,10.54
2018-04-26T07:14:54.446Z,10.52
2018-04-26T07:15:54.441Z,10.62
2018-04-26T07:16:54.436Z,10.51
2018-04-26T07:17:54.432Z,10.49
2018-04-26T07:18:54.427Z,10.49
2018-04-26T07:19:54.427Z,10.44
2018-04-26T07:20:54.422Z,10.52
2018-04-26T07:21:54.464Z,10.49
2018-04-26T07:22:54.407Z,10.47
2018-04-26T07:23:54.403Z,10.58
2018-04-26T07:24:54.403Z,10.62
2018-04-26T07:25:54.400Z,10.68
2018-04-26T07:26:54.389Z,10.95
2018-04-26T07:27:54.385Z,11.19
2018-04-26T07:28:54.381Z,11.85
2018-04-26T07:29:54.375Z,12.58
2018-04-26T07:30:54.370Z,14.04
2018-04-26T07:31:54.370Z,14.27
2018-04-26T07:32:54.365Z,14.56
2018-04-26T07:33:54.363Z,14.54
2018-04-26T07:34:54.383Z,14.46
2018-04-26T07:35:54.352Z,14.53
2018-04-26T07:36:54.348Z,14.53
2018-04-26T07:37:54.346Z,14.57
2018-04-26T07:38:54.344Z,14.87
2018-04-26T07:39:54.341Z,15.98
2018-04-26T07:40:54.338Z,16.32
2018-04-26T07:41:54.336Z,16.70
2018-04-26T07:42:54.335Z,16.91
2018-04-26T07:43:54.334Z,17.12
2018-04-26T07:44:54.335Z,16.99
2018-04-26T07:45:54.335Z,16.67
2018-04-26T07:46:54.334Z,16.82
2018-04-26T07:47:54.334Z,17.00
2018-04-26T07:48:54.332Z,17.09
2018-04-26T07:49:54.328Z,17.17
2018-04-26T07:50:54.328Z,17.18
2018-04-26T07:51:54.328Z,17.25
2018-04-26T07:52:54.328Z,17.35
2018-04-26T07:53:54.328Z,16.91
2018-04-26T07:54:54.328Z,16.52
2018-04-26T07:55:54.329Z,16.27
2018-04-26T07:56:54.329Z,16.29
2018-04-26T07:57:54.329Z,15.80
2018-04-26T07:58:54.337Z,15.58
2018-04-26T07:59:54.334Z,15.49
2018-04-26T08:00:54.335Z,15.56
2018-04-26T08:01:54.331Z,16.66
2018-04-26T08:02:54.331Z,16.92
2018-04-26T08:03:54.336Z,16.73
2018-04-26T08:04:54.335Z,16.77
2018-04-26T08:05:54.336Z,16.37
2018-04-26T08:06:54.335Z,16.04
2018-04-26T08:07:54.335Z,15.86
2018-04-26T08:08:54.333Z,15.64
2018-04-26T08:09:54.334Z,15.58
2018-04-26T08:10:54.335Z,15.52
2018-04-26T08:11:54.337Z,15.64
2018-04-26T08:12:54.336Z,15.76
2018-04-26T08:13:54.336Z,15.70
2018-04-26T08:14:54.337Z,17.79
2018-04-26T08:15:54.337Z,19.55
2018-04-26T08:16:54.341Z,19.67
2018-04-26T08:17:54.343Z,20.20
2018-04-26T08:18:54.344Z,20.16
2018-04-26T08:19:54.346Z,19.67
2018-04-26T08:20:54.343Z,18.96
2018-04-26T08:21:54.346Z,18.82
2018-04-26T08:22:54.348Z,18.62
2018-04-26T08:23:54.350Z,18.64
2018-04-26T08:24:54.374Z,18.21
2018-04-26T08:25:54.356Z,17.86
2018-04-26T08:26:54.357Z,17.60
2018-04-26T08:27:54.359Z,17.18
2018-04-26T08:28:54.361Z,16.73
2018-04-26T08:29:54.365Z,15.89
2018-04-26T08:30:54.370Z,15.53
2018-04-26T08:31:54.376Z,15.31
2018-04-26T08:32:54.369Z,14.94
2018-04-26T08:33:54.371Z,14.64
2018-04-26T08:34:54.373Z,14.34
2018-04-26T08:35:54.374Z,14.23
2018-04-26T08:36:54.386Z,14.23
2018-04-26T08:37:54.379Z,14.21
2018-04-26T08:38:54.379Z,14.34
2018-04-26T08:39:54.386Z,14.71
2018-04-26T08:40:54.376Z,16.95
2018-04-26T08:41:54.376Z,18.99
2018-04-26T08:42:54.381Z,20.51
2018-04-26T08:43:54.383Z,21.16
2018-04-26T08:44:54.380Z,21.64
2018-04-26T08:45:54.380Z,22.23
2018-04-26T08:46:54.384Z,22.86
2018-04-26T08:47:54.387Z,24.02
2018-04-26T08:48:54.389Z,24.77
2018-04-26T08:49:54.392Z,25.67
2018-04-26T08:50:54.400Z,26.41
2018-04-26T08:51:54.402Z,27.30
2018-04-26T08:52:54.412Z,28.32
2018-04-26T08:53:54.412Z,28.91
2018-04-26T08:54:54.420Z,29.36
2018-04-26T08:55:54.427Z,30.13
2018-04-26T08:56:54.442Z,30.22
2018-04-26T08:57:54.446Z,30.44
2018-04-26T08:58:54.451Z,27.99
2018-04-26T08:59:54.460Z,28.97
2018-04-26T09:00:54.473Z,29.07
2018-04-26T09:01:54.483Z,29.41
2018-04-26T09:02:54.492Z,28.50
2018-04-26T09:03:54.502Z,28.69
2018-04-26T09:04:54.512Z,28.50
2018-04-26T09:05:54.526Z,28.89
2018-04-26T09:06:54.538Z,29.11
2018-04-26T09:07:54.550Z,28.46
2018-04-26T09:08:54.563Z,28.24
2018-04-26T09:09:54.575Z,28.08
2018-04-26T09:10:54.593Z,28.50
2018-04-26T09:11:54.607Z,29.45
2018-04-26T09:12:54.615Z,29.25
2018-04-26T09:13:54.632Z,29.00
2018-04-26T09:14:54.648Z,29.69
2018-04-26T09:15:54.737Z,29.47
2018-04-26T09:16:54.672Z,29.99
2018-04-26T09:17:54.688Z,31.04
2018-04-26T09:18:54.701Z,30.49
2018-04-26T09:19:54.717Z,29.11
2018-04-26T09:20:54.730Z,28.13
2018-04-26T09:21:54.800Z,26.72
2018-04-26T09:22:54.761Z,25.19
2018-04-26T09:23:54.775Z,23.99
2018-04-26T09:24:54.789Z,22.23
2018-04-26T09:25:54.805Z,21.73
2018-04-26T09:26:54.818Z,23.68
2018-04-26T09:27:54.835Z,24.12
2018-04-26T09:28:54.848Z,25.74
2018-04-26T09:29:54.861Z,26.94
2018-04-26T09:30:54.870Z,27.88
2018-04-26T09:31:54.884Z,28.73
2018-04-26T09:32:54.900Z,28.57
2018-04-26T09:33:54.913Z,27.65
2018-04-26T09:34:54.922Z,26.53
2018-04-26T09:35:54.936Z,26.97
2018-04-26T09:36:54.949Z,26.90
2018-04-26T09:37:54.963Z,26.73
2018-04-26T09:38:54.978Z,26.56
2018-04-26T09:39:54.990Z,26.28
2018-04-26T09:40:55.007Z,26.65
2018-04-26T09:41:55.021Z,25.53
2018-04-26T09:42:55.032Z,24.87
2018-04-26T09:43:55.044Z,25.86
2018-04-26T09:44:55.057Z,27.09
2018-04-26T09:45:55.070Z,27.78
2018-04-26T09:46:55.085Z,27.21
2018-04-26T09:47:55.098Z,26.68
2018-04-26T09:48:55.109Z,27.71
2018-04-26T09:49:55.123Z,27.21
2018-04-26T09:50:55.137Z,26.17
2018-04-26T09:51:55.151Z,25.66
2018-04-26T09:52:55.167Z,24.86
2018-04-26T09:53:55.181Z,25.35
2018-04-26T09:54:55.195Z,24.86
2018-04-26T09:55:55.207Z,24.48
2018-04-26T09:56:55.215Z,23.41
2018-04-26T09:57:55.227Z,23.16
2018-04-26T09:58:55.241Z,22.63
2018-04-26T09:59:55.254Z,22.61
2018-04-26T10:00:55.263Z,23.31
2018-04-26T10:01:55.275Z,24.27
2018-04-26T10:02:55.285Z,25.19
2018-04-26T10:03:55.297Z,25.24
2018-04-26T10:04:55.306Z,26.35
2018-04-26T10:05:55.319Z,25.86
2018-04-26T10:06:55.333Z,25.38
2018-04-26T10:07:55.343Z,24.93
2018-04-26T10:08:55.369Z,23.71
2018-04-26T10:09:55.359Z,22.93
2018-04-26T10:10:55.371Z,22.06
2018-04-26T10:11:55.381Z,21.89
2018-04-26T10:12:55.397Z,21.43
2018-04-26T10:13:55.405Z,21.34
2018-04-26T10:14:55.409Z,20.93
2018-04-26T10:15:55.418Z,20.94
2018-04-26T10:16:55.463Z,21.89
2018-04-26T10:17:55.440Z,23.18
2018-04-26T10:18:55.444Z,24.64
2018-04-26T10:19:55.453Z,24.74
2018-04-26T10:20:55.459Z,24.16
2018-04-26T10:21:55.472Z,23.37
2018-04-26T10:22:55.475Z,22.64
2018-04-26T10:23:55.484Z,21.16
2018-04-26T10:24:55.517Z,21.03
2018-04-26T10:25:55.507Z,20.98
2018-04-26T10:26:55.512Z,20.94
2018-04-26T10:27:55.520Z,22.11
2018-04-26T10:28:55.525Z,23.22
2018-04-26T10:29:55.573Z,24.14
2018-04-26T10:30:55.540Z,24.39
2018-04-26T10:31:55.546Z,24.00
2018-04-26T10:32:55.554Z,23.14
2018-04-26T10:33:55.563Z,23.54
2018-04-26T10:34:55.569Z,23.34
2018-04-26T10:35:55.578Z,23.15
2018-04-26T10:36:55.586Z,23.84
2018-04-26T10:37:55.593Z,23.53
2018-04-26T10:38:55.605Z,23.34
2018-04-26T10:39:55.618Z,22.39
2018-04-26T10:40:55.616Z,21.71
2018-04-26T10:41:55.623Z,22.15
2018-04-26T10:42:55.632Z,22.45
2018-04-26T10:43:55.639Z,22.12
2018-04-26T10:44:55.646Z,21.55
2018-04-26T10:45:55.652Z,21.71
2018-04-26T10:46:55.665Z,22.88
2018-04-26T10:47:55.671Z,22.56
2018-04-26T10:48:55.676Z,21.73
2018-04-26T10:49:55.680Z,22.59
2018-04-26T10:50:55.692Z,23.06
2018-04-26T10:51:55.701Z,22.64
2018-04-26T10:52:55.767Z,22.42
2018-04-26T10:53:55.708Z,22.17
2018-04-26T10:54:55.715Z,22.05
2018-04-26T10:55:55.801Z,21.86
2018-04-26T10:56:55.729Z,22.09
2018-04-26T10:57:55.735Z,22.26
2018-04-26T10:58:55.745Z,22.97
2018-04-26T10:59:55.749Z,21.93
2018-04-26T11:00:55.761Z,20.94
2018-04-26T11:01:55.764Z,21.18
2018-04-26T11:02:55.770Z,21.68
2018-04-26T11:03:55.777Z,21.34
2018-04-26T11:04:55.801Z,21.26
2018-04-26T11:05:55.794Z,21.13
2018-04-26T11:06:55.798Z,20.63
2018-04-26T11:07:55.804Z,20.10
2018-04-26T11:08:55.818Z,19.58
2018-04-26T11:09:55.822Z,19.49
2018-04-26T11:10:55.825Z,19.52
2018-04-26T11:11:55.831Z,19.35
2018-04-26T11:12:55.841Z,19.17
2018-04-26T11:13:55.842Z,19.23
2018-04-26T11:14:55.849Z,19.27
2018-04-26T11:15:55.855Z,19.45
2018-04-26T11:16:55.859Z,19.30
2018-04-26T11:17:55.865Z,19.40
2018-04-26T11:18:55.877Z,19.40
2018-04-26T11:19:55.879Z,19.39
2018-04-26T11:20:55.880Z,19.38
2018-04-26T11:21:55.885Z,19.55
2018-04-26T11:22:55.897Z,19.39
2018-04-26T11:23:55.900Z,19.45
2018-04-26T11:24:55.899Z,19.49
2018-04-26T11:25:55.915Z,19.25
2018-04-26T11:26:55.909Z,19.30
2018-04-26T11:27:55.915Z,19.10
2018-04-26T11:28:55.917Z,18.49
2018-04-26T11:29:55.922Z,18.28
2018-04-26T11:30:55.991Z,17.74
2018-04-26T11:31:55.930Z,17.49
2018-04-26T11:32:55.936Z,17.38
2018-04-26T11:33:55.940Z,17.14
2018-04-26T11:34:55.940Z,17.12
2018-04-26T11:35:55.945Z,17.03
2018-04-26T11:36:55.951Z,16.78
2018-04-26T11:37:55.955Z,16.92
2018-04-26T11:38:55.959Z,16.95
2018-04-26T11:39:55.958Z,17.10
2018-04-26T11:40:55.963Z,17.05
2018-04-26T11:41:56.011Z,17.15
2018-04-26T11:42:55.967Z,17.35
2018-04-26T11:43:55.968Z,17.55
2018-04-26T11:44:55.972Z,17.95
2018-04-26T11:45:55.973Z,18.32
2018-04-26T11:46:55.976Z,18.64
2018-04-26T11:47:55.978Z,18.93
2018-04-26T11:48:55.989Z,19.06
2018-04-26T11:49:55.987Z,19.38
2018-04-26T11:50:55.986Z,19.71
2018-04-26T11:51:55.992Z,19.70
2018-04-26T11:52:55.991Z,19.97
2018-04-26T11:53:55.995Z,20.02
2018-04-26T11:54:55.996Z,20.01
2018-04-26T11:55:55.999Z,20.04
2018-04-26T11:56:56.001Z,19.75
2018-04-26T11:57:56.005Z,19.58
2018-04-26T11:58:56.007Z,19.42
2018-04-26T11:59:56.010Z,19.30
2018-04-26T12:00:56.017Z,19.21
2018-04-26T12:01:56.021Z,19.23
2018-04-26T12:02:56.026Z,18.99
2018-04-26T12:03:56.025Z,18.84
2018-04-26T12:04:56.027Z,18.68
2018-04-26T12:05:56.027Z,18.86
2018-04-26T12:06:56.029Z,18.90
2018-04-26T12:07:56.035Z,19.01
2018-04-26T12:08:56.034Z,18.84
2018-04-26T12:09:56.037Z,18.99
2018-04-26T12:10:56.041Z,19.05
2018-04-26T12:11:56.044Z,19.34
2018-04-26T12:12:56.047Z,19.45
2018-04-26T12:13:56.048Z,19.52
2018-04-26T12:14:56.055Z,19.57
2018-04-26T12:15:56.058Z,19.21
2018-04-26T12:16:56.056Z,18.96
2018-04-26T12:17:56.059Z,18.94
2018-04-26T12:18:56.061Z,18.97
2018-04-26T12:19:56.064Z,18.68
2018-04-26T12:20:56.073Z,18.74
2018-04-26T12:21:56.074Z,18.62
2018-04-26T12:22:56.072Z,18.59
2018-04-26T12:23:56.117Z,18.64
2018-04-26T12:24:56.081Z,18.50
2018-04-26T12:25:56.081Z,18.64
2018-04-26T12:26:56.083Z,18.64
2018-04-26T12:27:56.085Z,18.65
2018-04-26T12:28:56.087Z,18.57
2018-04-26T12:29:56.092Z,18.53
2018-04-26T12:30:56.095Z,18.50
2018-04-26T12:31:56.094Z,18.47
2018-04-26T12:32:56.099Z,18.42
2018-04-26T12:33:56.103Z,18.71
2018-04-26T12:34:56.104Z,18.60
2018-04-26T12:35:56.107Z,18.62
2018-04-26T12:36:56.104Z,18.72
2018-04-26T12:37:56.107Z,19.01
2018-04-26T12:38:56.111Z,19.24
2018-04-26T12:39:56.121Z,19.20
2018-04-26T12:40:56.113Z,19.38
2018-04-26T12:41:56.123Z,19.35
2018-04-26T12:42:56.118Z,19.49
2018-04-26T12:43:56.120Z,19.49
2018-04-26T12:44:56.122Z,19.28
2018-04-26T12:45:56.125Z,18.91
2018-04-26T12:46:56.130Z,18.62
2018-04-26T12:47:56.133Z,18.35
2018-04-26T12:48:56.132Z,18.29
2018-04-26T12:49:56.135Z,18.51
2018-04-26T12:50:56.135Z,18.49
2018-04-26T12:51:56.138Z,18.60
2018-04-26T12:52:56.143Z,18.66
2018-04-26T12:53:56.152Z,18.56